sensor_id;sensor_type;location;lat;lon;timestamp;P1;durP1;ratioP1;P2;durP2;ratioP2
73437;SDS011;66471;56.532;21.020;2024-02-21T00:01:40;5.83;;;2.77;;
73437;SDS011;66471;56.532;21.020;2024-02-21T00:04:07;5.53;;;3.05;;
73437;SDS011;66471;56.532;21.020;2024-02-21T00:06:35;6.35;;;3.72;;
73437;SDS011;66471;56.532;21.020;2024-02-21T00:09:02;5.60;;;3.00;;
73437;SDS011;66471;56.532;21.020;2024-02-21T00:11:29;6.03;;;2.80;;
73437;SDS011;66471;56.532;21.020;2024-02-21T00:13:57;5.90;;;3.10;;
73437;SDS011;66471;56.532;21.020;2024-02-21T00:16:24;7.68;;;2.67;;
73437;SDS011;66471;56.532;21.020;2024-02-21T00:18:51;5.07;;;2.85;;
73437;SDS011;66471;56.532;21.020;2024-02-21T00:21:18;5.45;;;2.70;;
73437;SDS011;66471;56.532;21.020;2024-02-21T00:23:46;6.70;;;2.47;;
73437;SDS011;66471;56.532;21.020;2024-02-21T00:26:13;5.00;;;2.53;;
73437;SDS011;66471;56.532;21.020;2024-02-21T00:28:40;3.95;;;1.83;;
73437;SDS011;66471;56.532;21.020;2024-02-21T00:31:08;4.78;;;2.45;;
73437;SDS011;66471;56.532;21.020;2024-02-21T00:33:35;4.30;;;1.80;;
73437;SDS011;66471;56.532;21.020;2024-02-21T00:36:02;4.10;;;2.15;;
73437;SDS011;66471;56.532;21.020;2024-02-21T00:38:30;4.53;;;1.63;;
73437;SDS011;66471;56.532;21.020;2024-02-21T00:40:59;4.15;;;1.98;;
73437;SDS011;66471;56.532;21.020;2024-02-21T00:43:27;5.25;;;1.83;;
73437;SDS011;66471;56.532;21.020;2024-02-21T00:45:54;3.72;;;1.95;;
73437;SDS011;66471;56.532;21.020;2024-02-21T00:48:21;4.68;;;1.85;;
73437;SDS011;66471;56.532;21.020;2024-02-21T00:50:49;3.97;;;1.57;;
73437;SDS011;66471;56.532;21.020;2024-02-21T00:53:16;4.00;;;2.00;;
73437;SDS011;66471;56.532;21.020;2024-02-21T00:55:43;4.70;;;2.40;;
73437;SDS011;66471;56.532;21.020;2024-02-21T00:58:10;4.07;;;1.70;;
73437;SDS011;66471;56.532;21.020;2024-02-21T01:00:38;4.75;;;2.13;;
73437;SDS011;66471;56.532;21.020;2024-02-21T01:03:05;5.00;;;2.00;;
73437;SDS011;66471;56.532;21.020;2024-02-21T01:05:32;4.57;;;2.05;;
73437;SDS011;66471;56.532;21.020;2024-02-21T01:07:59;4.38;;;1.92;;
73437;SDS011;66471;56.532;21.020;2024-02-21T01:10:26;4.95;;;2.25;;
73437;SDS011;66471;56.532;21.020;2024-02-21T01:12:54;4.80;;;2.40;;
73437;SDS011;66471;56.532;21.020;2024-02-21T01:15:21;5.30;;;2.23;;
73437;SDS011;66471;56.532;21.020;2024-02-21T01:17:48;7.03;;;3.17;;
73437;SDS011;66471;56.532;21.020;2024-02-21T01:20:17;6.70;;;2.95;;
73437;SDS011;66471;56.532;21.020;2024-02-21T01:22:44;6.25;;;3.05;;
73437;SDS011;66471;56.532;21.020;2024-02-21T01:25:11;6.95;;;3.65;;
73437;SDS011;66471;56.532;21.020;2024-02-21T01:27:39;5.57;;;2.70;;
73437;SDS011;66471;56.532;21.020;2024-02-21T01:30:06;6.30;;;2.95;;
73437;SDS011;66471;56.532;21.020;2024-02-21T01:32:34;7.38;;;3.45;;
73437;SDS011;66471;56.532;21.020;2024-02-21T01:35:01;6.32;;;3.05;;
73437;SDS011;66471;56.532;21.020;2024-02-21T01:37:28;7.13;;;3.45;;
73437;SDS011;66471;56.532;21.020;2024-02-21T01:39:55;6.43;;;3.00;;
73437;SDS011;66471;56.532;21.020;2024-02-21T01:42:22;9.02;;;4.85;;
73437;SDS011;66471;56.532;21.020;2024-02-21T01:44:49;10.13;;;6.50;;
73437;SDS011;66471;56.532;21.020;2024-02-21T01:47:17;10.30;;;5.60;;
73437;SDS011;66471;56.532;21.020;2024-02-21T01:49:45;14.18;;;6.38;;
73437;SDS011;66471;56.532;21.020;2024-02-21T01:52:12;10.73;;;5.20;;
73437;SDS011;66471;56.532;21.020;2024-02-21T01:54:42;11.15;;;5.70;;
73437;SDS011;66471;56.532;21.020;2024-02-21T01:57:10;10.20;;;5.63;;
73437;SDS011;66471;56.532;21.020;2024-02-21T01:59:38;9.20;;;5.35;;
73437;SDS011;66471;56.532;21.020;2024-02-21T02:02:05;10.95;;;6.30;;
73437;SDS011;66471;56.532;21.020;2024-02-21T02:04:33;9.37;;;5.47;;
73437;SDS011;66471;56.532;21.020;2024-02-21T02:07:02;9.18;;;5.30;;
73437;SDS011;66471;56.532;21.020;2024-02-21T02:09:31;10.40;;;4.95;;
73437;SDS011;66471;56.532;21.020;2024-02-21T02:11:58;9.00;;;4.30;;
73437;SDS011;66471;56.532;21.020;2024-02-21T02:14:25;8.23;;;3.85;;
73437;SDS011;66471;56.532;21.020;2024-02-21T02:16:52;9.00;;;4.20;;
73437;SDS011;66471;56.532;21.020;2024-02-21T02:19:20;7.82;;;3.17;;
73437;SDS011;66471;56.532;21.020;2024-02-21T02:21:49;6.88;;;3.03;;
73437;SDS011;66471;56.532;21.020;2024-02-21T02:24:23;9.43;;;4.00;;
73437;SDS011;66471;56.532;21.020;2024-02-21T02:26:55;10.82;;;4.60;;
73437;SDS011;66471;56.532;21.020;2024-02-21T02:29:22;8.80;;;3.47;;
73437;SDS011;66471;56.532;21.020;2024-02-21T02:31:49;11.90;;;4.43;;
73437;SDS011;66471;56.532;21.020;2024-02-21T02:34:16;7.70;;;3.67;;
73437;SDS011;66471;56.532;21.020;2024-02-21T02:36:43;7.75;;;2.88;;
73437;SDS011;66471;56.532;21.020;2024-02-21T02:39:11;10.35;;;4.03;;
73437;SDS011;66471;56.532;21.020;2024-02-21T02:41:38;8.07;;;3.30;;
73437;SDS011;66471;56.532;21.020;2024-02-21T02:44:05;7.97;;;3.25;;
73437;SDS011;66471;56.532;21.020;2024-02-21T02:46:32;9.85;;;3.50;;
73437;SDS011;66471;56.532;21.020;2024-02-21T02:49:00;9.48;;;4.93;;
73437;SDS011;66471;56.532;21.020;2024-02-21T02:51:28;8.60;;;3.50;;
73437;SDS011;66471;56.532;21.020;2024-02-21T02:53:55;8.33;;;3.30;;
73437;SDS011;66471;56.532;21.020;2024-02-21T02:56:23;10.68;;;3.55;;
73437;SDS011;66471;56.532;21.020;2024-02-21T02:58:50;7.95;;;3.72;;
73437;SDS011;66471;56.532;21.020;2024-02-21T03:01:18;7.78;;;3.75;;
73437;SDS011;66471;56.532;21.020;2024-02-21T03:03:45;8.85;;;3.97;;
73437;SDS011;66471;56.532;21.020;2024-02-21T03:06:13;9.97;;;3.63;;
73437;SDS011;66471;56.532;21.020;2024-02-21T03:08:41;9.43;;;4.57;;
73437;SDS011;66471;56.532;21.020;2024-02-21T03:11:09;10.38;;;5.38;;
73437;SDS011;66471;56.532;21.020;2024-02-21T03:13:37;10.10;;;5.18;;
73437;SDS011;66471;56.532;21.020;2024-02-21T03:16:04;18.45;;;7.60;;
73437;SDS011;66471;56.532;21.020;2024-02-21T03:18:32;13.83;;;5.97;;
73437;SDS011;66471;56.532;21.020;2024-02-21T03:20:59;13.43;;;6.95;;
73437;SDS011;66471;56.532;21.020;2024-02-21T03:23:26;11.45;;;5.82;;
73437;SDS011;66471;56.532;21.020;2024-02-21T03:25:53;11.13;;;5.15;;
73437;SDS011;66471;56.532;21.020;2024-02-21T03:28:20;8.45;;;4.28;;
73437;SDS011;66471;56.532;21.020;2024-02-21T03:30:47;10.10;;;3.77;;
73437;SDS011;66471;56.532;21.020;2024-02-21T03:33:14;14.07;;;5.65;;
73437;SDS011;66471;56.532;21.020;2024-02-21T03:35:42;11.88;;;6.35;;
73437;SDS011;66471;56.532;21.020;2024-02-21T03:38:09;11.95;;;6.20;;
73437;SDS011;66471;56.532;21.020;2024-02-21T03:40:36;16.48;;;7.60;;
73437;SDS011;66471;56.532;21.020;2024-02-21T03:43:03;12.40;;;6.40;;
73437;SDS011;66471;56.532;21.020;2024-02-21T03:45:30;12.60;;;5.38;;
73437;SDS011;66471;56.532;21.020;2024-02-21T03:47:57;11.68;;;4.60;;
73437;SDS011;66471;56.532;21.020;2024-02-21T03:50:26;11.43;;;4.45;;
73437;SDS011;66471;56.532;21.020;2024-02-21T03:52:54;10.95;;;4.88;;
73437;SDS011;66471;56.532;21.020;2024-02-21T03:55:21;9.50;;;3.63;;
73437;SDS011;66471;56.532;21.020;2024-02-21T03:57:49;11.05;;;4.50;;
73437;SDS011;66471;56.532;21.020;2024-02-21T04:00:16;9.90;;;5.32;;
73437;SDS011;66471;56.532;21.020;2024-02-21T04:02:43;10.75;;;4.32;;
73437;SDS011;66471;56.532;21.020;2024-02-21T04:05:11;13.43;;;5.15;;
73437;SDS011;66471;56.532;21.020;2024-02-21T04:07:38;9.93;;;4.70;;
73437;SDS011;66471;56.532;21.020;2024-02-21T04:10:06;11.70;;;5.00;;
73437;SDS011;66471;56.532;21.020;2024-02-21T04:12:33;11.07;;;5.97;;
73437;SDS011;66471;56.532;21.020;2024-02-21T04:15:00;9.85;;;4.28;;
73437;SDS011;66471;56.532;21.020;2024-02-21T04:17:28;11.02;;;4.60;;
73437;SDS011;66471;56.532;21.020;2024-02-21T04:20:02;11.20;;;4.13;;
73437;SDS011;66471;56.532;21.020;2024-02-21T04:22:37;12.15;;;5.15;;
73437;SDS011;66471;56.532;21.020;2024-02-21T04:25:04;10.52;;;5.25;;
73437;SDS011;66471;56.532;21.020;2024-02-21T04:27:32;10.38;;;4.22;;
73437;SDS011;66471;56.532;21.020;2024-02-21T04:29:59;10.98;;;5.07;;
73437;SDS011;66471;56.532;21.020;2024-02-21T04:32:26;9.87;;;4.70;;
73437;SDS011;66471;56.532;21.020;2024-02-21T04:34:54;11.60;;;6.75;;
73437;SDS011;66471;56.532;21.020;2024-02-21T04:37:21;14.20;;;7.28;;
73437;SDS011;66471;56.532;21.020;2024-02-21T04:39:48;12.13;;;5.70;;
73437;SDS011;66471;56.532;21.020;2024-02-21T04:42:16;11.70;;;5.50;;
73437;SDS011;66471;56.532;21.020;2024-02-21T04:44:43;10.73;;;5.23;;
73437;SDS011;66471;56.532;21.020;2024-02-21T04:47:10;13.23;;;6.07;;
73437;SDS011;66471;56.532;21.020;2024-02-21T04:49:38;12.43;;;6.93;;
73437;SDS011;66471;56.532;21.020;2024-02-21T04:52:05;13.27;;;6.28;;
73437;SDS011;66471;56.532;21.020;2024-02-21T04:54:32;14.90;;;6.72;;
73437;SDS011;66471;56.532;21.020;2024-02-21T04:57:01;12.83;;;6.50;;
73437;SDS011;66471;56.532;21.020;2024-02-21T04:59:28;14.77;;;6.28;;
73437;SDS011;66471;56.532;21.020;2024-02-21T05:01:56;17.42;;;6.93;;
73437;SDS011;66471;56.532;21.020;2024-02-21T05:04:23;16.38;;;6.57;;
73437;SDS011;66471;56.532;21.020;2024-02-21T05:06:51;13.48;;;6.65;;
73437;SDS011;66471;56.532;21.020;2024-02-21T05:09:18;15.13;;;6.67;;
73437;SDS011;66471;56.532;21.020;2024-02-21T05:11:45;15.15;;;6.63;;
73437;SDS011;66471;56.532;21.020;2024-02-21T05:14:12;18.42;;;7.72;;
73437;SDS011;66471;56.532;21.020;2024-02-21T05:16:39;17.15;;;8.00;;
73437;SDS011;66471;56.532;21.020;2024-02-21T05:19:07;17.73;;;8.35;;
73437;SDS011;66471;56.532;21.020;2024-02-21T05:21:34;23.27;;;10.53;;
73437;SDS011;66471;56.532;21.020;2024-02-21T05:24:01;21.55;;;8.98;;
73437;SDS011;66471;56.532;21.020;2024-02-21T05:26:28;20.88;;;8.95;;
73437;SDS011;66471;56.532;21.020;2024-02-21T05:28:56;18.58;;;7.93;;
73437;SDS011;66471;56.532;21.020;2024-02-21T05:31:23;20.45;;;10.93;;
73437;SDS011;66471;56.532;21.020;2024-02-21T05:33:50;30.37;;;12.60;;
73437;SDS011;66471;56.532;21.020;2024-02-21T05:36:17;28.88;;;12.75;;
73437;SDS011;66471;56.532;21.020;2024-02-21T05:38:44;29.38;;;12.55;;
73437;SDS011;66471;56.532;21.020;2024-02-21T05:41:12;23.52;;;10.60;;
73437;SDS011;66471;56.532;21.020;2024-02-21T05:43:40;22.30;;;10.90;;
73437;SDS011;66471;56.532;21.020;2024-02-21T05:46:07;27.37;;;11.73;;
73437;SDS011;66471;56.532;21.020;2024-02-21T05:48:34;20.95;;;9.25;;
73437;SDS011;66471;56.532;21.020;2024-02-21T05:51:06;19.13;;;9.38;;
73437;SDS011;66471;56.532;21.020;2024-02-21T05:53:33;19.38;;;7.97;;
73437;SDS011;66471;56.532;21.020;2024-02-21T05:56:02;21.60;;;9.20;;
73437;SDS011;66471;56.532;21.020;2024-02-21T05:58:31;18.40;;;7.27;;
73437;SDS011;66471;56.532;21.020;2024-02-21T06:00:58;19.38;;;7.40;;
73437;SDS011;66471;56.532;21.020;2024-02-21T06:03:25;22.95;;;8.10;;
73437;SDS011;66471;56.532;21.020;2024-02-21T06:05:52;21.60;;;7.43;;
73437;SDS011;66471;56.532;21.020;2024-02-21T06:08:19;20.27;;;7.07;;
73437;SDS011;66471;56.532;21.020;2024-02-21T06:10:47;17.57;;;6.70;;
73437;SDS011;66471;56.532;21.020;2024-02-21T06:13:15;23.33;;;8.73;;
73437;SDS011;66471;56.532;21.020;2024-02-21T06:15:42;21.80;;;8.75;;
73437;SDS011;66471;56.532;21.020;2024-02-21T06:18:09;21.42;;;8.00;;
73437;SDS011;66471;56.532;21.020;2024-02-21T06:20:36;21.17;;;7.97;;
73437;SDS011;66471;56.532;21.020;2024-02-21T06:23:06;21.60;;;8.13;;
73437;SDS011;66471;56.532;21.020;2024-02-21T06:25:33;23.08;;;9.55;;
73437;SDS011;66471;56.532;21.020;2024-02-21T06:28:00;17.48;;;7.40;;
73437;SDS011;66471;56.532;21.020;2024-02-21T06:30:28;15.55;;;6.05;;
73437;SDS011;66471;56.532;21.020;2024-02-21T06:32:55;25.63;;;9.85;;
73437;SDS011;66471;56.532;21.020;2024-02-21T06:35:22;18.73;;;8.87;;
73437;SDS011;66471;56.532;21.020;2024-02-21T06:37:53;19.85;;;9.02;;
73437;SDS011;66471;56.532;21.020;2024-02-21T06:40:21;22.65;;;10.30;;
73437;SDS011;66471;56.532;21.020;2024-02-21T06:42:49;21.90;;;10.05;;
73437;SDS011;66471;56.532;21.020;2024-02-21T06:45:16;22.95;;;10.55;;
73437;SDS011;66471;56.532;21.020;2024-02-21T06:47:44;20.80;;;8.37;;
73437;SDS011;66471;56.532;21.020;2024-02-21T06:50:11;20.63;;;8.73;;
73437;SDS011;66471;56.532;21.020;2024-02-21T06:52:38;21.92;;;10.98;;
73437;SDS011;66471;56.532;21.020;2024-02-21T06:55:05;23.08;;;10.23;;
73437;SDS011;66471;56.532;21.020;2024-02-21T06:57:33;24.35;;;13.52;;
73437;SDS011;66471;56.532;21.020;2024-02-21T07:00:00;23.30;;;10.33;;
73437;SDS011;66471;56.532;21.020;2024-02-21T07:02:27;23.65;;;10.55;;
73437;SDS011;66471;56.532;21.020;2024-02-21T07:04:54;19.00;;;8.93;;
73437;SDS011;66471;56.532;21.020;2024-02-21T07:07:21;18.13;;;8.05;;
73437;SDS011;66471;56.532;21.020;2024-02-21T07:09:49;19.38;;;6.85;;
73437;SDS011;66471;56.532;21.020;2024-02-21T07:12:16;12.77;;;5.70;;
73437;SDS011;66471;56.532;21.020;2024-02-21T07:14:44;15.63;;;5.15;;
73437;SDS011;66471;56.532;21.020;2024-02-21T07:17:11;12.27;;;4.43;;
73437;SDS011;66471;56.532;21.020;2024-02-21T07:19:39;15.90;;;4.88;;
73437;SDS011;66471;56.532;21.020;2024-02-21T07:22:06;9.80;;;4.50;;
73437;SDS011;66471;56.532;21.020;2024-02-21T07:24:33;17.30;;;7.53;;
73437;SDS011;66471;56.532;21.020;2024-02-21T07:27:00;12.45;;;4.40;;
73437;SDS011;66471;56.532;21.020;2024-02-21T07:29:31;13.27;;;5.10;;
73437;SDS011;66471;56.532;21.020;2024-02-21T07:31:58;13.55;;;5.30;;
73437;SDS011;66471;56.532;21.020;2024-02-21T07:34:25;15.55;;;4.60;;
73437;SDS011;66471;56.532;21.020;2024-02-21T07:36:53;18.47;;;4.70;;
73437;SDS011;66471;56.532;21.020;2024-02-21T07:39:20;16.98;;;5.32;;
73437;SDS011;66471;56.532;21.020;2024-02-21T07:41:47;15.88;;;5.60;;
73437;SDS011;66471;56.532;21.020;2024-02-21T07:44:15;21.75;;;7.38;;
73437;SDS011;66471;56.532;21.020;2024-02-21T07:46:43;20.58;;;6.00;;
73437;SDS011;66471;56.532;21.020;2024-02-21T07:49:10;30.53;;;5.83;;
73437;SDS011;66471;56.532;21.020;2024-02-21T07:51:37;25.70;;;6.05;;
73437;SDS011;66471;56.532;21.020;2024-02-21T07:54:05;35.72;;;9.27;;
73437;SDS011;66471;56.532;21.020;2024-02-21T07:56:34;29.88;;;8.13;;
73437;SDS011;66471;56.532;21.020;2024-02-21T07:59:01;25.98;;;7.30;;
73437;SDS011;66471;56.532;21.020;2024-02-21T08:01:29;31.50;;;7.37;;
73437;SDS011;66471;56.532;21.020;2024-02-21T08:03:56;32.08;;;8.27;;
73437;SDS011;66471;56.532;21.020;2024-02-21T08:06:25;33.88;;;9.32;;
73437;SDS011;66471;56.532;21.020;2024-02-21T08:08:52;35.13;;;8.45;;
73437;SDS011;66471;56.532;21.020;2024-02-21T08:11:19;29.42;;;8.85;;
73437;SDS011;66471;56.532;21.020;2024-02-21T08:13:46;24.13;;;6.93;;
73437;SDS011;66471;56.532;21.020;2024-02-21T08:16:13;20.83;;;8.13;;
73437;SDS011;66471;56.532;21.020;2024-02-21T08:18:40;25.65;;;8.48;;
73437;SDS011;66471;56.532;21.020;2024-02-21T08:21:10;23.83;;;6.47;;
73437;SDS011;66471;56.532;21.020;2024-02-21T08:23:37;19.05;;;8.07;;
73437;SDS011;66471;56.532;21.020;2024-02-21T08:26:04;21.60;;;8.07;;
73437;SDS011;66471;56.532;21.020;2024-02-21T08:28:31;21.65;;;7.25;;
73437;SDS011;66471;56.532;21.020;2024-02-21T08:30:59;16.08;;;5.70;;
73437;SDS011;66471;56.532;21.020;2024-02-21T08:33:26;14.60;;;6.50;;
73437;SDS011;66471;56.532;21.020;2024-02-21T08:35:54;14.07;;;6.63;;
73437;SDS011;66471;56.532;21.020;2024-02-21T08:38:21;17.57;;;7.53;;
73437;SDS011;66471;56.532;21.020;2024-02-21T08:40:48;13.98;;;6.57;;
73437;SDS011;66471;56.532;21.020;2024-02-21T08:43:15;16.17;;;7.57;;
73437;SDS011;66471;56.532;21.020;2024-02-21T08:45:42;13.68;;;5.40;;
73437;SDS011;66471;56.532;21.020;2024-02-21T08:48:09;25.70;;;10.77;;
73437;SDS011;66471;56.532;21.020;2024-02-21T08:50:38;18.43;;;8.10;;
73437;SDS011;66471;56.532;21.020;2024-02-21T08:53:05;12.48;;;6.40;;
73437;SDS011;66471;56.532;21.020;2024-02-21T08:55:33;12.25;;;6.82;;
73437;SDS011;66471;56.532;21.020;2024-02-21T08:58:02;9.90;;;5.05;;
73437;SDS011;66471;56.532;21.020;2024-02-21T09:00:31;13.07;;;6.70;;
73437;SDS011;66471;56.532;21.020;2024-02-21T09:02:58;16.20;;;6.70;;
73437;SDS011;66471;56.532;21.020;2024-02-21T09:05:25;14.52;;;7.15;;
73437;SDS011;66471;56.532;21.020;2024-02-21T09:07:52;13.52;;;7.20;;
73437;SDS011;66471;56.532;21.020;2024-02-21T09:10:20;12.20;;;6.18;;
73437;SDS011;66471;56.532;21.020;2024-02-21T09:12:48;11.25;;;5.72;;
73437;SDS011;66471;56.532;21.020;2024-02-21T09:15:15;11.43;;;6.80;;
73437;SDS011;66471;56.532;21.020;2024-02-21T09:17:42;10.18;;;5.93;;
73437;SDS011;66471;56.532;21.020;2024-02-21T09:20:09;12.82;;;6.43;;
73437;SDS011;66471;56.532;21.020;2024-02-21T09:22:38;12.32;;;6.60;;
73437;SDS011;66471;56.532;21.020;2024-02-21T09:25:06;14.07;;;7.20;;
73437;SDS011;66471;56.532;21.020;2024-02-21T09:27:34;11.70;;;5.47;;
73437;SDS011;66471;56.532;21.020;2024-02-21T09:30:01;11.55;;;6.57;;
73437;SDS011;66471;56.532;21.020;2024-02-21T09:32:31;13.63;;;7.07;;
73437;SDS011;66471;56.532;21.020;2024-02-21T09:35:01;10.95;;;4.90;;
73437;SDS011;66471;56.532;21.020;2024-02-21T09:37:29;10.68;;;6.07;;
73437;SDS011;66471;56.532;21.020;2024-02-21T09:39:56;13.23;;;6.27;;
73437;SDS011;66471;56.532;21.020;2024-02-21T09:42:25;11.75;;;6.32;;
73437;SDS011;66471;56.532;21.020;2024-02-21T09:45:08;12.82;;;6.20;;
73437;SDS011;66471;56.532;21.020;2024-02-21T09:50:27;12.63;;;6.47;;
73437;SDS011;66471;56.532;21.020;2024-02-21T09:52:55;16.47;;;8.23;;
73437;SDS011;66471;56.532;21.020;2024-02-21T09:55:23;12.63;;;6.50;;
73437;SDS011;66471;56.532;21.020;2024-02-21T09:57:54;10.85;;;5.57;;
73437;SDS011;66471;56.532;21.020;2024-02-21T10:00:23;10.57;;;6.40;;
73437;SDS011;66471;56.532;21.020;2024-02-21T10:02:50;12.13;;;6.47;;
73437;SDS011;66471;56.532;21.020;2024-02-21T10:05:17;14.37;;;6.43;;
73437;SDS011;66471;56.532;21.020;2024-02-21T10:07:45;19.48;;;7.95;;
73437;SDS011;66471;56.532;21.020;2024-02-21T10:10:12;21.00;;;9.27;;
73437;SDS011;66471;56.532;21.020;2024-02-21T10:12:51;22.40;;;8.13;;
73437;SDS011;66471;56.532;21.020;2024-02-21T10:15:21;25.67;;;9.50;;
73437;SDS011;66471;56.532;21.020;2024-02-21T10:18:00;30.47;;;10.20;;
73437;SDS011;66471;56.532;21.020;2024-02-21T10:20:30;23.20;;;7.57;;
73437;SDS011;66471;56.532;21.020;2024-02-21T10:23:04;29.65;;;8.55;;
73437;SDS011;66471;56.532;21.020;2024-02-21T10:25:35;38.03;;;9.57;;
73437;SDS011;66471;56.532;21.020;2024-02-21T10:28:08;36.58;;;9.45;;
73437;SDS011;66471;56.532;21.020;2024-02-21T10:30:38;36.27;;;10.00;;
73437;SDS011;66471;56.532;21.020;2024-02-21T10:33:15;40.55;;;11.88;;
73437;SDS011;66471;56.532;21.020;2024-02-21T10:35:42;38.53;;;10.40;;
73437;SDS011;66471;56.532;21.020;2024-02-21T10:38:10;30.30;;;9.60;;
73437;SDS011;66471;56.532;21.020;2024-02-21T10:40:38;30.48;;;9.00;;
73437;SDS011;66471;56.532;21.020;2024-02-21T10:43:06;36.47;;;7.93;;
73437;SDS011;66471;56.532;21.020;2024-02-21T10:45:38;29.05;;;8.77;;
73437;SDS011;66471;56.532;21.020;2024-02-21T10:51:02;30.27;;;10.95;;
73437;SDS011;66471;56.532;21.020;2024-02-21T10:59:09;29.23;;;10.23;;
73437;SDS011;66471;56.532;21.020;2024-02-21T11:01:37;25.42;;;9.82;;
73437;SDS011;66471;56.532;21.020;2024-02-21T11:04:06;19.65;;;8.02;;
73437;SDS011;66471;56.532;21.020;2024-02-21T11:06:35;20.88;;;9.13;;
73437;SDS011;66471;56.532;21.020;2024-02-21T11:09:05;21.47;;;8.50;;
73437;SDS011;66471;56.532;21.020;2024-02-21T11:11:38;22.23;;;9.27;;
73437;SDS011;66471;56.532;21.020;2024-02-21T11:14:11;23.20;;;8.45;;
73437;SDS011;66471;56.532;21.020;2024-02-21T11:16:41;23.17;;;9.82;;
73437;SDS011;66471;56.532;21.020;2024-02-21T11:19:09;19.80;;;7.93;;
73437;SDS011;66471;56.532;21.020;2024-02-21T11:21:46;21.10;;;7.67;;
73437;SDS011;66471;56.532;21.020;2024-02-21T11:24:31;28.85;;;10.35;;
73437;SDS011;66471;56.532;21.020;2024-02-21T11:29:54;27.65;;;9.70;;
73437;SDS011;66471;56.532;21.020;2024-02-21T11:32:24;27.15;;;8.85;;
73437;SDS011;66471;56.532;21.020;2024-02-21T11:34:56;23.70;;;8.07;;
73437;SDS011;66471;56.532;21.020;2024-02-21T11:37:27;26.13;;;11.45;;
73437;SDS011;66471;56.532;21.020;2024-02-21T11:39:55;22.30;;;9.27;;
73437;SDS011;66471;56.532;21.020;2024-02-21T11:42:24;29.75;;;12.68;;
73437;SDS011;66471;56.532;21.020;2024-02-21T11:44:53;24.08;;;10.13;;
73437;SDS011;66471;56.532;21.020;2024-02-21T11:47:23;25.57;;;10.03;;
73437;SDS011;66471;56.532;21.020;2024-02-21T11:49:52;21.48;;;8.75;;
73437;SDS011;66471;56.532;21.020;2024-02-21T11:52:23;24.73;;;11.13;;
73437;SDS011;66471;56.532;21.020;2024-02-21T11:54:53;25.48;;;10.88;;
73437;SDS011;66471;56.532;21.020;2024-02-21T11:57:22;19.92;;;8.40;;
73437;SDS011;66471;56.532;21.020;2024-02-21T11:59:50;29.50;;;12.10;;
73437;SDS011;66471;56.532;21.020;2024-02-21T12:02:24;30.50;;;12.07;;
73437;SDS011;66471;56.532;21.020;2024-02-21T12:04:55;24.70;;;9.82;;
73437;SDS011;66471;56.532;21.020;2024-02-21T12:07:23;28.15;;;12.70;;
73437;SDS011;66471;56.532;21.020;2024-02-21T12:09:51;22.70;;;11.82;;
73437;SDS011;66471;56.532;21.020;2024-02-21T12:12:19;23.47;;;8.97;;
73437;SDS011;66471;56.532;21.020;2024-02-21T12:14:53;23.27;;;8.55;;
73437;SDS011;66471;56.532;21.020;2024-02-21T12:17:25;22.52;;;9.77;;
73437;SDS011;66471;56.532;21.020;2024-02-21T12:19:52;22.75;;;7.93;;
73437;SDS011;66471;56.532;21.020;2024-02-21T12:22:19;26.13;;;9.85;;
73437;SDS011;66471;56.532;21.020;2024-02-21T12:24:46;23.27;;;9.50;;
73437;SDS011;66471;56.532;21.020;2024-02-21T12:27:15;24.48;;;10.68;;
73437;SDS011;66471;56.532;21.020;2024-02-21T12:29:42;22.90;;;9.82;;
73437;SDS011;66471;56.532;21.020;2024-02-21T12:32:18;20.17;;;7.82;;
73437;SDS011;66471;56.532;21.020;2024-02-21T12:34:45;21.55;;;9.48;;
73437;SDS011;66471;56.532;21.020;2024-02-21T12:37:21;26.10;;;10.80;;
73437;SDS011;66471;56.532;21.020;2024-02-21T12:39:49;25.40;;;9.95;;
73437;SDS011;66471;56.532;21.020;2024-02-21T12:42:16;22.48;;;8.73;;
73437;SDS011;66471;56.532;21.020;2024-02-21T12:44:44;24.88;;;11.55;;
73437;SDS011;66471;56.532;21.020;2024-02-21T12:47:13;25.13;;;10.88;;
73437;SDS011;66471;56.532;21.020;2024-02-21T12:49:41;20.27;;;9.97;;
73437;SDS011;66471;56.532;21.020;2024-02-21T12:52:11;22.15;;;12.93;;
73437;SDS011;66471;56.532;21.020;2024-02-21T12:54:40;20.48;;;8.60;;
73437;SDS011;66471;56.532;21.020;2024-02-21T12:57:09;22.58;;;9.50;;
73437;SDS011;66471;56.532;21.020;2024-02-21T12:59:36;19.05;;;9.38;;
73437;SDS011;66471;56.532;21.020;2024-02-21T13:02:03;17.27;;;8.07;;
73437;SDS011;66471;56.532;21.020;2024-02-21T13:04:30;17.90;;;8.20;;
73437;SDS011;66471;56.532;21.020;2024-02-21T13:06:57;21.85;;;9.73;;
73437;SDS011;66471;56.532;21.020;2024-02-21T13:09:25;17.98;;;8.38;;
73437;SDS011;66471;56.532;21.020;2024-02-21T13:11:52;19.85;;;9.32;;
73437;SDS011;66471;56.532;21.020;2024-02-21T13:14:19;17.53;;;7.20;;
73437;SDS011;66471;56.532;21.020;2024-02-21T13:16:47;23.27;;;9.52;;
73437;SDS011;66471;56.532;21.020;2024-02-21T13:19:15;17.33;;;8.23;;
73437;SDS011;66471;56.532;21.020;2024-02-21T13:21:46;21.55;;;8.35;;
73437;SDS011;66471;56.532;21.020;2024-02-21T13:24:14;20.90;;;8.38;;
73437;SDS011;66471;56.532;21.020;2024-02-21T13:26:41;25.57;;;10.57;;
73437;SDS011;66471;56.532;21.020;2024-02-21T13:29:08;23.80;;;9.98;;
73437;SDS011;66471;56.532;21.020;2024-02-21T13:31:36;20.92;;;9.52;;
73437;SDS011;66471;56.532;21.020;2024-02-21T13:34:03;23.63;;;8.95;;
73437;SDS011;66471;56.532;21.020;2024-02-21T13:36:31;26.33;;;13.15;;
73437;SDS011;66471;56.532;21.020;2024-02-21T13:39:00;25.20;;;10.27;;
73437;SDS011;66471;56.532;21.020;2024-02-21T13:41:27;24.98;;;10.30;;
73437;SDS011;66471;56.532;21.020;2024-02-21T13:43:54;23.02;;;9.07;;
73437;SDS011;66471;56.532;21.020;2024-02-21T13:46:21;24.73;;;11.63;;
73437;SDS011;66471;56.532;21.020;2024-02-21T13:48:48;22.90;;;9.70;;
73437;SDS011;66471;56.532;21.020;2024-02-21T13:51:16;29.50;;;11.60;;
73437;SDS011;66471;56.532;21.020;2024-02-21T13:53:43;26.13;;;12.13;;
73437;SDS011;66471;56.532;21.020;2024-02-21T13:56:12;23.08;;;9.35;;
73437;SDS011;66471;56.532;21.020;2024-02-21T13:58:41;26.13;;;12.77;;
73437;SDS011;66471;56.532;21.020;2024-02-21T14:01:08;28.08;;;12.65;;
73437;SDS011;66471;56.532;21.020;2024-02-21T14:03:36;20.20;;;9.23;;
73437;SDS011;66471;56.532;21.020;2024-02-21T14:06:03;21.25;;;10.13;;
73437;SDS011;66471;56.532;21.020;2024-02-21T14:08:31;28.95;;;13.02;;
73437;SDS011;66471;56.532;21.020;2024-02-21T14:11:01;25.85;;;10.85;;
73437;SDS011;66471;56.532;21.020;2024-02-21T14:13:28;30.45;;;13.85;;
73437;SDS011;66471;56.532;21.020;2024-02-21T14:15:56;29.33;;;10.13;;
73437;SDS011;66471;56.532;21.020;2024-02-21T14:18:24;32.53;;;14.82;;
73437;SDS011;66471;56.532;21.020;2024-02-21T14:20:51;34.90;;;14.88;;
73437;SDS011;66471;56.532;21.020;2024-02-21T14:23:19;29.63;;;12.15;;
73437;SDS011;66471;56.532;21.020;2024-02-21T14:25:48;24.30;;;10.63;;
73437;SDS011;66471;56.532;21.020;2024-02-21T14:28:16;24.90;;;10.73;;
73437;SDS011;66471;56.532;21.020;2024-02-21T14:30:47;23.48;;;10.70;;
73437;SDS011;66471;56.532;21.020;2024-02-21T14:33:16;33.95;;;13.73;;
73437;SDS011;66471;56.532;21.020;2024-02-21T14:35:43;36.47;;;15.23;;
73437;SDS011;66471;56.532;21.020;2024-02-21T14:38:11;31.98;;;13.02;;
73437;SDS011;66471;56.532;21.020;2024-02-21T14:40:38;34.57;;;11.53;;